createdAt,value
2023-05-05T00:00:59.421Z,15.53
2023-05-05T00:03:27.123Z,15.51
2023-05-05T00:05:55.066Z,15.50
2023-05-05T00:08:22.986Z,15.49
2023-05-05T00:10:51.784Z,15.48
2023-05-05T00:13:20.269Z,15.45
2023-05-05T00:15:50.713Z,15.45
2023-05-05T00:18:18.758Z,15.43
2023-05-05T00:20:49.179Z,15.43
2023-05-05T00:23:16.999Z,15.42
2023-05-05T00:25:44.106Z,15.38
2023-05-05T00:28:11.540Z,15.40
2023-05-05T00:30:39.871Z,15.38
2023-05-05T00:33:07.077Z,15.36
2023-05-05T00:35:34.519Z,15.34
2023-05-05T00:38:01.515Z,15.34
2023-05-05T00:40:28.757Z,15.33
2023-05-05T00:42:55.728Z,15.32
2023-05-05T00:45:22.975Z,15.28
2023-05-05T00:47:53.078Z,15.31
2023-05-05T00:50:25.601Z,15.29
2023-05-05T00:52:58.032Z,15.27
2023-05-05T00:55:25.064Z,15.25
2023-05-05T00:57:52.125Z,15.21
2023-05-05T01:00:19.044Z,15.21
2023-05-05T01:02:46.138Z,15.20
2023-05-05T01:05:15.749Z,15.19
2023-05-05T01:07:51.589Z,15.20
2023-05-05T01:10:45.529Z,15.19
2023-05-05T01:13:30.739Z,15.19
2023-05-05T01:16:27.237Z,15.17
2023-05-05T01:18:59.964Z,15.14
2023-05-05T01:21:34.111Z,15.15
2023-05-05T01:24:14.445Z,15.15
2023-05-05T01:27:22.983Z,15.14
2023-05-05T01:29:58.991Z,15.14
2023-05-05T01:32:28.714Z,15.12
2023-05-05T01:35:03.277Z,15.12
2023-05-05T01:37:43.861Z,15.11
2023-05-05T01:40:13.455Z,15.10
2023-05-05T01:42:43.852Z,15.09
2023-05-05T01:45:14.112Z,15.09
2023-05-05T01:47:43.088Z,15.07
2023-05-05T01:50:11.852Z,15.08
2023-05-05T01:52:40.452Z,15.08
2023-05-05T01:55:09.783Z,15.07
2023-05-05T01:57:39.830Z,15.07
2023-05-05T02:00:08.278Z,15.06
2023-05-05T02:02:38.058Z,15.05
2023-05-05T02:05:07.352Z,15.05
2023-05-05T02:07:35.449Z,15.05
2023-05-05T02:10:04.013Z,15.05
2023-05-05T02:12:32.117Z,15.04
2023-05-05T02:15:00.743Z,15.04
2023-05-05T02:17:29.576Z,15.04
2023-05-05T02:19:59.336Z,15.04
2023-05-05T02:22:26.336Z,15.03
2023-05-05T02:24:53.816Z,15.03
2023-05-05T02:27:24.287Z,15.02
2023-05-05T02:29:57.004Z,15.03
2023-05-05T02:32:49.384Z,15.02
2023-05-05T02:35:20.394Z,15.02
2023-05-05T02:37:55.142Z,15.00
2023-05-05T02:40:24.851Z,15.01
2023-05-05T02:42:54.708Z,15.01
2023-05-05T02:45:23.776Z,15.01
2023-05-05T02:47:50.732Z,15.00
2023-05-05T02:50:17.848Z,14.96
2023-05-05T02:52:46.121Z,15.00
2023-05-05T02:55:13.722Z,15.00
2023-05-05T02:57:43.245Z,15.01
2023-05-05T03:00:18.968Z,15.00
2023-05-05T03:02:54.834Z,15.02
2023-05-05T03:05:24.384Z,15.04
2023-05-05T03:07:56.694Z,15.03
2023-05-05T03:10:30.457Z,15.03
2023-05-05T03:13:01.295Z,15.04
2023-05-05T03:15:43.756Z,15.04
2023-05-05T03:18:12.478Z,15.04
2023-05-05T03:20:40.929Z,15.03
2023-05-05T03:23:08.445Z,15.05
2023-05-05T03:25:45.236Z,15.06
2023-05-05T03:28:12.370Z,15.02
2023-05-05T03:30:39.480Z,15.03
2023-05-05T03:33:06.525Z,15.04
2023-05-05T03:35:33.688Z,15.03
2023-05-05T03:38:00.672Z,15.01
2023-05-05T03:40:40.311Z,15.04
2023-05-05T03:43:11.065Z,15.04
2023-05-05T03:45:38.102Z,15.05
2023-05-05T03:48:05.531Z,15.05
2023-05-05T03:50:32.550Z,15.05
2023-05-05T03:52:59.480Z,15.06
2023-05-05T03:55:26.451Z,15.06
2023-05-05T03:57:53.433Z,15.06
2023-05-05T04:00:20.444Z,15.08
2023-05-05T04:02:47.545Z,15.06
2023-05-05T04:05:14.682Z,15.09
2023-05-05T04:07:41.635Z,15.11
2023-05-05T04:10:09.417Z,15.12
2023-05-05T04:12:36.561Z,15.09
2023-05-05T04:15:03.610Z,15.11
2023-05-05T04:17:30.574Z,15.12
2023-05-05T04:19:57.568Z,15.12
2023-05-05T04:22:24.542Z,15.12
2023-05-05T04:24:52.095Z,15.14
2023-05-05T04:27:19.061Z,15.16
2023-05-05T04:29:46.167Z,15.11
2023-05-05T04:32:13.111Z,14.90
2023-05-05T04:34:40.233Z,14.98
2023-05-05T04:37:07.201Z,15.07
2023-05-05T04:39:34.149Z,15.14
2023-05-05T04:42:01.077Z,15.19
2023-05-05T04:44:28.337Z,15.24
2023-05-05T04:46:55.386Z,15.27
2023-05-05T04:49:22.374Z,15.29
2023-05-05T04:51:49.394Z,15.31
2023-05-05T04:54:16.398Z,15.32
2023-05-05T04:56:43.408Z,15.33
2023-05-05T04:59:10.282Z,15.33
2023-05-05T05:01:38.567Z,15.35
2023-05-05T05:04:06.010Z,15.37
2023-05-05T05:06:33.188Z,15.16
2023-05-05T05:09:00.453Z,15.19
2023-05-05T05:11:27.596Z,15.22
2023-05-05T05:13:54.817Z,15.17
2023-05-05T05:16:22.302Z,15.16
2023-05-05T05:18:49.228Z,15.17
2023-05-05T05:21:16.184Z,15.15
2023-05-05T05:23:43.107Z,15.18
2023-05-05T05:26:10.146Z,15.19
2023-05-05T05:28:37.088Z,15.19
2023-05-05T05:31:05.193Z,15.28
2023-05-05T05:33:32.401Z,15.28
2023-05-05T05:36:00.653Z,15.32
2023-05-05T05:38:27.618Z,15.35
2023-05-05T05:40:54.960Z,15.36
2023-05-05T05:43:21.896Z,15.40
2023-05-05T05:45:48.896Z,15.43
2023-05-05T05:48:15.925Z,15.43
2023-05-05T05:50:43.428Z,15.44
2023-05-05T05:53:10.406Z,15.45
2023-05-05T05:55:37.353Z,15.47
2023-05-05T05:58:04.369Z,15.47
2023-05-05T06:00:31.267Z,15.43
2023-05-05T06:02:58.311Z,15.43
2023-05-05T06:05:25.398Z,15.37
2023-05-05T06:07:52.293Z,15.40
2023-05-05T06:10:27.840Z,15.31
2023-05-05T06:12:55.281Z,15.24
2023-05-05T06:15:22.359Z,15.19
2023-05-05T06:17:49.559Z,15.16
2023-05-05T06:20:16.675Z,15.13
2023-05-05T06:22:43.635Z,15.13
2023-05-05T06:25:11.510Z,15.11
2023-05-05T06:27:38.574Z,14.81
2023-05-05T06:30:07.256Z,14.66
2023-05-05T06:32:34.607Z,14.81
2023-05-05T06:35:01.871Z,14.88
2023-05-05T06:37:28.910Z,14.93
2023-05-05T06:39:57.228Z,14.98
2023-05-05T06:42:24.253Z,15.02
2023-05-05T06:44:51.636Z,15.03
2023-05-05T06:47:18.786Z,15.06
2023-05-05T06:49:45.903Z,15.07
2023-05-05T06:52:13.054Z,15.06
2023-05-05T06:54:40.084Z,15.08
2023-05-05T06:57:07.068Z,15.08
2023-05-05T06:59:34.036Z,15.07
2023-05-05T07:02:01.124Z,15.08
2023-05-05T07:04:28.509Z,15.07
2023-05-05T07:06:55.857Z,15.07
2023-05-05T07:09:22.914Z,15.06
2023-05-05T07:11:50.197Z,15.06
2023-05-05T07:14:17.226Z,15.05
2023-05-05T07:16:44.720Z,15.06
2023-05-05T07:19:11.725Z,15.05
2023-05-05T07:21:40.522Z,15.04
2023-05-05T07:24:07.874Z,15.05
2023-05-05T07:26:35.248Z,15.04
2023-05-05T07:29:04.830Z,15.06
2023-05-05T07:31:32.228Z,15.07
2023-05-05T07:33:59.472Z,15.09
2023-05-05T07:36:28.199Z,15.11
2023-05-05T07:38:55.335Z,15.11
2023-05-05T07:41:22.455Z,15.11
2023-05-05T07:43:49.584Z,15.11
2023-05-05T07:46:20.244Z,15.13
2023-05-05T07:48:47.547Z,15.12
2023-05-05T07:51:14.745Z,15.13
2023-05-05T07:53:41.972Z,15.14
2023-05-05T07:56:09.319Z,15.13
2023-05-05T07:58:36.672Z,15.12
2023-05-05T08:01:06.936Z,15.11
2023-05-05T08:03:34.406Z,15.11
2023-05-05T08:06:09.419Z,15.11
2023-05-05T08:08:37.055Z,15.12
2023-05-05T08:11:04.904Z,15.12
2023-05-05T08:13:32.107Z,15.10
2023-05-05T08:15:59.301Z,15.10
2023-05-05T08:18:26.959Z,15.08
2023-05-05T08:20:55.168Z,15.08
2023-05-05T08:23:22.299Z,15.08
2023-05-05T08:25:50.373Z,15.07
2023-05-05T08:28:17.527Z,15.09
2023-05-05T08:30:45.218Z,15.10
2023-05-05T08:33:12.792Z,15.11
2023-05-05T08:35:40.382Z,15.12
2023-05-05T08:38:07.583Z,15.10
2023-05-05T08:40:37.460Z,15.12
2023-05-05T08:43:05.295Z,15.11
2023-05-05T08:45:33.360Z,15.13
2023-05-05T08:48:05.793Z,15.13
2023-05-05T08:50:33.628Z,15.13
2023-05-05T08:53:10.868Z,15.12
2023-05-05T08:55:57.056Z,15.12
2023-05-05T08:58:24.151Z,15.12
2023-05-05T09:00:52.697Z,15.07
2023-05-05T09:03:20.444Z,15.12
2023-05-05T09:05:48.275Z,15.12
2023-05-05T09:08:15.440Z,15.10
2023-05-05T09:10:43.320Z,15.12
2023-05-05T09:13:10.859Z,15.11
2023-05-05T09:15:58.779Z,15.08
2023-05-05T09:18:26.558Z,15.08
2023-05-05T09:20:53.831Z,15.01
2023-05-05T09:23:22.264Z,14.96
2023-05-05T09:26:05.160Z,14.86
2023-05-05T09:28:32.965Z,14.89
2023-05-05T09:31:14.429Z,14.84
2023-05-05T09:33:41.880Z,14.84
2023-05-05T09:36:09.291Z,14.81
2023-05-05T09:38:37.381Z,14.80
2023-05-05T09:41:05.884Z,14.77
2023-05-05T09:43:52.245Z,14.79
2023-05-05T09:46:19.424Z,14.78
2023-05-05T09:48:46.888Z,14.79
2023-05-05T09:51:14.107Z,14.77
2023-05-05T09:53:42.986Z,14.74
2023-05-05T09:56:10.816Z,14.76
2023-05-05T09:58:38.149Z,14.77
2023-05-05T10:01:05.312Z,14.75
2023-05-05T10:03:32.683Z,14.73
2023-05-05T10:06:01.361Z,14.74
2023-05-05T10:08:31.833Z,14.73
2023-05-05T10:11:01.281Z,14.70
2023-05-05T10:13:29.242Z,14.72
2023-05-05T10:15:58.160Z,14.71
2023-05-05T10:18:27.309Z,14.70
2023-05-05T10:21:02.703Z,14.71
2023-05-05T10:23:38.970Z,14.70
2023-05-05T10:26:07.854Z,14.68
2023-05-05T10:28:42.654Z,14.69
2023-05-05T10:31:34.321Z,14.68
2023-05-05T10:34:06.598Z,14.66
2023-05-05T10:36:34.901Z,14.67
2023-05-05T10:39:03.771Z,14.68
2023-05-05T10:41:32.611Z,14.68
2023-05-05T10:44:02.061Z,14.67
2023-05-05T10:46:30.987Z,14.66
2023-05-05T10:49:12.471Z,14.66
2023-05-05T10:51:56.296Z,14.65
2023-05-05T10:54:38.629Z,14.67
2023-05-05T10:57:10.091Z,14.68
2023-05-05T10:59:38.354Z,14.66
2023-05-05T11:02:30.060Z,14.65
2023-05-05T11:05:07.310Z,14.66
2023-05-05T11:07:37.441Z,14.66
2023-05-05T11:10:08.864Z,14.67
2023-05-05T11:12:54.974Z,14.66
2023-05-05T11:15:28.312Z,14.66
2023-05-05T11:17:56.210Z,14.65
2023-05-05T11:20:40.098Z,14.65
2023-05-05T11:23:07.363Z,14.65
2023-05-05T11:25:38.074Z,14.66
2023-05-05T11:28:10.660Z,14.64
2023-05-05T11:30:59.232Z,14.65
2023-05-05T11:33:31.605Z,14.65
2023-05-05T11:36:06.128Z,14.66
2023-05-05T11:38:57.216Z,14.66
2023-05-05T11:41:33.637Z,14.66
2023-05-05T11:44:18.297Z,14.66
2023-05-05T11:46:51.096Z,14.65
2023-05-05T11:49:31.887Z,14.64
2023-05-05T11:52:04.372Z,14.63
2023-05-05T11:54:32.495Z,14.64
2023-05-05T11:57:02.613Z,14.65
2023-05-05T11:59:30.573Z,14.65
2023-05-05T12:01:59.999Z,14.65
2023-05-05T12:04:27.240Z,14.66
2023-05-05T12:06:55.847Z,14.65
2023-05-05T12:09:23.619Z,14.65
2023-05-05T12:11:53.767Z,14.63
2023-05-05T12:14:22.054Z,14.65
2023-05-05T12:17:03.186Z,14.65
2023-05-05T12:19:33.494Z,14.65
2023-05-05T12:22:05.611Z,14.66
2023-05-05T12:24:32.875Z,14.65
2023-05-05T12:27:10.104Z,14.63
2023-05-05T12:29:37.332Z,14.65
2023-05-05T12:32:05.232Z,14.66
2023-05-05T12:34:33.448Z,14.64
2023-05-05T12:37:02.155Z,14.64
2023-05-05T12:39:37.027Z,14.64
2023-05-05T12:42:07.447Z,14.63
2023-05-05T12:44:38.298Z,14.64
2023-05-05T12:47:06.067Z,14.62
2023-05-05T12:49:45.432Z,14.62
2023-05-05T12:52:12.888Z,14.63
2023-05-05T12:55:00.444Z,14.63
2023-05-05T12:57:27.640Z,14.61
2023-05-05T12:59:55.066Z,14.64
2023-05-05T13:02:22.597Z,14.63
2023-05-05T13:04:54.095Z,14.62
2023-05-05T13:07:22.810Z,14.64
2023-05-05T13:09:51.385Z,14.64
2023-05-05T13:12:19.329Z,14.64
2023-05-05T13:14:47.341Z,14.65
2023-05-05T13:17:15.342Z,14.64
2023-05-05T13:19:43.321Z,14.64
2023-05-05T13:22:10.832Z,14.63
2023-05-05T13:24:49.747Z,14.65
2023-05-05T13:27:18.744Z,14.64
2023-05-05T13:29:45.780Z,14.63
2023-05-05T13:32:13.144Z,14.63
2023-05-05T13:34:40.413Z,14.52
2023-05-05T13:37:07.639Z,14.64
2023-05-05T13:39:34.863Z,14.65
2023-05-05T13:42:02.920Z,14.64
2023-05-05T13:44:29.932Z,14.63
2023-05-05T13:46:59.985Z,14.64
2023-05-05T13:49:27.388Z,14.62
2023-05-05T13:51:55.610Z,14.64
2023-05-05T13:54:22.850Z,14.62
2023-05-05T13:56:49.886Z,14.62
2023-05-05T13:59:17.423Z,14.60
2023-05-05T14:01:45.127Z,14.62
2023-05-05T14:04:12.714Z,14.62
2023-05-05T14:06:40.596Z,14.60
2023-05-05T14:09:09.355Z,14.59
2023-05-05T14:11:36.543Z,14.62
2023-05-05T14:14:03.812Z,14.62
2023-05-05T14:16:31.823Z,14.63
2023-05-05T14:18:59.736Z,14.63
2023-05-05T14:21:27.420Z,14.64
2023-05-05T14:23:54.531Z,14.65
2023-05-05T14:26:21.889Z,14.66
2023-05-05T14:28:50.145Z,14.67
2023-05-05T14:31:18.136Z,14.66
2023-05-05T14:33:45.278Z,14.67
2023-05-05T14:36:12.284Z,14.68
2023-05-05T14:38:39.474Z,14.68
2023-05-05T14:41:06.699Z,14.66
2023-05-05T14:43:34.022Z,14.65
2023-05-05T14:46:06.447Z,14.67
2023-05-05T14:48:34.624Z,14.67
2023-05-05T14:51:02.089Z,14.67
2023-05-05T14:53:29.328Z,14.68
2023-05-05T14:55:56.724Z,14.67
2023-05-05T14:58:25.030Z,14.67
2023-05-05T15:00:53.229Z,14.67
2023-05-05T15:03:20.842Z,14.68
2023-05-05T15:05:47.990Z,14.66
2023-05-05T15:08:15.043Z,14.66
2023-05-05T15:10:42.209Z,14.67
2023-05-05T15:13:09.583Z,14.65
2023-05-05T15:15:36.857Z,14.67
2023-05-05T15:18:04.079Z,14.66
2023-05-05T15:20:31.430Z,14.67
2023-05-05T15:22:58.663Z,14.68
2023-05-05T15:25:25.803Z,14.65
2023-05-05T15:27:53.397Z,14.68
2023-05-05T15:30:20.488Z,14.67
2023-05-05T15:32:47.530Z,14.68
2023-05-05T15:35:14.849Z,14.68
2023-05-05T15:37:43.092Z,14.67
2023-05-05T15:40:10.587Z,14.64
2023-05-05T15:42:38.335Z,14.65
2023-05-05T15:45:06.287Z,14.65
2023-05-05T15:47:33.485Z,14.67
2023-05-05T15:50:00.595Z,14.66
2023-05-05T15:52:27.799Z,14.63
2023-05-05T15:54:54.869Z,14.74
2023-05-05T15:57:21.976Z,14.79
2023-05-05T15:59:55.229Z,14.86
2023-05-05T16:02:22.764Z,14.88
2023-05-05T16:04:49.883Z,14.83
2023-05-05T16:07:17.847Z,14.79
2023-05-05T16:09:44.986Z,14.78
2023-05-05T16:12:12.333Z,14.80
2023-05-05T16:14:39.425Z,14.80
2023-05-05T16:17:08.269Z,14.78
2023-05-05T16:19:35.292Z,14.78
2023-05-05T16:22:02.496Z,14.79
2023-05-05T16:24:29.582Z,14.81
2023-05-05T16:26:56.655Z,14.79
2023-05-05T16:29:23.719Z,14.78
2023-05-05T16:31:50.863Z,14.79
2023-05-05T16:34:18.099Z,14.80
2023-05-05T16:36:45.190Z,14.81
2023-05-05T16:39:12.466Z,14.81
2023-05-05T16:41:40.284Z,14.83
2023-05-05T16:44:07.544Z,14.87
2023-05-05T16:46:37.888Z,14.86
2023-05-05T16:49:04.929Z,14.84
2023-05-05T16:51:32.229Z,14.83
2023-05-05T16:53:59.629Z,14.83
2023-05-05T16:56:26.922Z,14.85
2023-05-05T16:58:54.064Z,14.87
2023-05-05T17:01:21.073Z,14.86
2023-05-05T17:03:48.408Z,14.86
2023-05-05T17:06:15.630Z,14.85
2023-05-05T17:08:42.832Z,14.83
2023-05-05T17:11:11.698Z,14.84
2023-05-05T17:13:39.099Z,14.85
2023-05-05T17:16:07.268Z,14.85
2023-05-05T17:18:34.566Z,14.85
2023-05-05T17:21:01.744Z,14.86
2023-05-05T17:23:30.137Z,14.86
2023-05-05T17:25:59.280Z,14.87
2023-05-05T17:28:27.103Z,14.85
2023-05-05T17:30:54.391Z,14.88
2023-05-05T17:33:22.753Z,14.83
2023-05-05T17:35:50.014Z,14.81
2023-05-05T17:38:18.532Z,14.86
2023-05-05T17:40:45.607Z,14.90
2023-05-05T17:43:12.837Z,14.93
2023-05-05T17:45:40.012Z,14.92
2023-05-05T17:48:07.222Z,14.95
2023-05-05T17:50:34.379Z,14.94
2023-05-05T17:53:02.309Z,14.96
2023-05-05T17:55:29.402Z,14.97
2023-05-05T17:57:57.771Z,14.97
2023-05-05T18:00:25.189Z,15.01
2023-05-05T18:02:52.503Z,15.05
2023-05-05T18:05:20.437Z,15.08
2023-05-05T18:07:47.600Z,15.10
2023-05-05T18:10:14.940Z,15.12
2023-05-05T18:12:45.271Z,15.21
2023-05-05T18:15:12.751Z,15.22
2023-05-05T18:17:40.127Z,15.27
2023-05-05T18:20:07.911Z,15.29
2023-05-05T18:22:37.008Z,15.37
2023-05-05T18:25:05.916Z,15.44
2023-05-05T18:27:36.325Z,15.46
2023-05-05T18:30:05.292Z,15.54
2023-05-05T18:32:33.010Z,15.60
2023-05-05T18:35:00.324Z,15.62
2023-05-05T18:37:28.446Z,15.68
2023-05-05T18:39:56.118Z,15.73
2023-05-05T18:42:23.590Z,15.78
2023-05-05T18:44:51.306Z,15.81
2023-05-05T18:47:18.478Z,15.85
2023-05-05T18:49:46.160Z,15.91
2023-05-05T18:52:14.199Z,15.95
2023-05-05T18:54:41.514Z,15.99
2023-05-05T18:57:09.261Z,16.02
2023-05-05T18:59:36.276Z,16.05
2023-05-05T19:02:04.369Z,16.08
2023-05-05T19:04:33.086Z,16.11
2023-05-05T19:07:00.740Z,16.12
2023-05-05T19:09:28.345Z,16.12
2023-05-05T19:11:55.992Z,16.14
2023-05-05T19:14:23.753Z,16.16
2023-05-05T19:16:51.499Z,16.18
2023-05-05T19:19:20.098Z,16.29
2023-05-05T19:21:47.449Z,16.35
2023-05-05T19:24:14.823Z,16.49
2023-05-05T19:26:44.519Z,16.62
2023-05-05T19:29:12.048Z,16.68
2023-05-05T19:31:39.363Z,16.75
2023-05-05T19:34:06.810Z,16.82
2023-05-05T19:36:34.777Z,16.86
2023-05-05T19:39:03.779Z,16.93
2023-05-05T19:41:31.760Z,16.99
2023-05-05T19:43:59.008Z,17.04
2023-05-05T19:46:27.020Z,17.11
2023-05-05T19:48:54.349Z,17.16
2023-05-05T19:51:21.764Z,17.20
2023-05-05T19:53:49.165Z,17.23
2023-05-05T19:56:17.549Z,17.27
2023-05-05T19:58:56.250Z,17.31
2023-05-05T20:01:24.611Z,17.34
2023-05-05T20:03:54.832Z,17.41
2023-05-05T20:06:24.734Z,17.42
2023-05-05T20:08:54.935Z,17.46
2023-05-05T20:11:22.501Z,17.50
2023-05-05T20:13:50.459Z,17.53
2023-05-05T20:16:18.497Z,17.54
2023-05-05T20:18:45.770Z,17.56
2023-05-05T20:21:13.288Z,17.59
2023-05-05T20:23:40.993Z,17.61
2023-05-05T20:26:08.521Z,17.62
2023-05-05T20:28:36.458Z,17.64
2023-05-05T20:31:03.759Z,17.75
2023-05-05T20:33:31.982Z,17.77
2023-05-05T20:35:59.878Z,17.76
2023-05-05T20:38:27.554Z,17.84
2023-05-05T20:40:56.128Z,17.84
2023-05-05T20:43:26.020Z,17.86
2023-05-05T20:45:53.484Z,17.89
2023-05-05T20:48:20.813Z,17.84
2023-05-05T20:50:48.276Z,17.70
2023-05-05T20:53:19.521Z,17.63
2023-05-05T20:55:47.075Z,17.64
2023-05-05T20:58:14.629Z,17.73
2023-05-05T21:00:42.452Z,17.76
2023-05-05T21:03:10.080Z,17.80
2023-05-05T21:05:37.734Z,17.82
2023-05-05T21:08:06.392Z,17.86
2023-05-05T21:10:34.486Z,17.85
2023-05-05T21:13:02.883Z,17.83
2023-05-05T21:15:32.916Z,17.86
2023-05-05T21:18:01.982Z,17.84
2023-05-05T21:20:29.684Z,17.81
2023-05-05T21:22:59.867Z,17.76
2023-05-05T21:25:27.667Z,17.69
2023-05-05T21:27:55.128Z,17.63
2023-05-05T21:30:24.282Z,17.51
2023-05-05T21:32:53.494Z,17.40
2023-05-05T21:35:21.002Z,17.31
2023-05-05T21:37:49.464Z,17.24
2023-05-05T21:40:17.197Z,17.16
2023-05-05T21:42:44.531Z,17.12
2023-05-05T21:45:12.545Z,17.08
2023-05-05T21:47:39.953Z,17.03
2023-05-05T21:50:08.195Z,16.98
2023-05-05T21:52:35.772Z,16.95
2023-05-05T21:55:03.141Z,16.91
2023-05-05T21:57:30.314Z,16.87
2023-05-05T21:59:57.695Z,16.82
2023-05-05T22:02:25.307Z,16.80
2023-05-05T22:04:52.684Z,16.77
2023-05-05T22:07:20.112Z,16.74
2023-05-05T22:09:47.709Z,16.71
2023-05-05T22:12:14.973Z,16.68
2023-05-05T22:14:42.462Z,16.67
2023-05-05T22:17:12.524Z,16.61
2023-05-05T22:19:39.568Z,16.61
2023-05-05T22:22:07.539Z,16.58
2023-05-05T22:24:35.069Z,16.55
2023-05-05T22:27:02.314Z,16.52
2023-05-05T22:29:29.827Z,16.50
2023-05-05T22:31:57.297Z,16.46
2023-05-05T22:34:24.465Z,16.43
2023-05-05T22:36:51.717Z,16.43
2023-05-05T22:39:18.998Z,16.41
2023-05-05T22:41:47.730Z,16.36
2023-05-05T22:44:14.977Z,16.35
2023-05-05T22:46:42.556Z,16.30
2023-05-05T22:49:09.955Z,16.31
2023-05-05T22:51:37.368Z,16.28
2023-05-05T22:54:04.848Z,16.27
2023-05-05T22:56:32.176Z,16.26
2023-05-05T22:58:59.367Z,16.24
2023-05-05T23:01:26.744Z,16.20
2023-05-05T23:03:53.961Z,16.21
2023-05-05T23:06:21.051Z,16.17
2023-05-05T23:08:49.329Z,16.15
2023-05-05T23:11:16.782Z,16.13
2023-05-05T23:13:43.790Z,16.13
2023-05-05T23:16:11.030Z,16.10
2023-05-05T23:18:39.088Z,16.08
2023-05-05T23:21:06.535Z,16.07
2023-05-05T23:23:33.613Z,16.06
2023-05-05T23:26:00.727Z,16.05
2023-05-05T23:28:27.837Z,16.02
2023-05-05T23:30:54.967Z,15.99
2023-05-05T23:33:22.016Z,16.00
2023-05-05T23:35:49.061Z,15.98
2023-05-05T23:38:16.604Z,15.96
2023-05-05T23:40:43.547Z,15.94
2023-05-05T23:43:12.325Z,15.92
2023-05-05T23:45:39.420Z,15.88
2023-05-05T23:48:06.583Z,15.88
2023-05-05T23:50:33.629Z,15.86
2023-05-05T23:53:00.680Z,15.84
2023-05-05T23:55:27.766Z,15.84
2023-05-05T23:57:54.760Z,15.82
